createdAt,value
2022-12-03T00:21:03.079Z,7.03
2022-12-03T00:27:59.504Z,3.05
2022-12-03T00:33:24.774Z,5.95
2022-12-03T00:36:19.893Z,5.28
2022-12-03T00:38:51.539Z,4.50
2022-12-03T00:41:24.854Z,3.20
2022-12-03T00:44:00.331Z,5.88
2022-12-03T00:46:29.255Z,3.03
2022-12-03T00:49:21.711Z,4.53
2022-12-03T00:51:50.081Z,2.40
2022-12-03T00:54:31.907Z,3.92
2022-12-03T00:57:22.400Z,6.72
2022-12-03T00:59:56.308Z,4.85
2022-12-03T01:02:27.739Z,2.83
2022-12-03T01:08:10.277Z,3.67
2022-12-03T01:10:52.820Z,4.80
2022-12-03T01:13:27.846Z,4.25
2022-12-03T01:16:26.002Z,2.95
2022-12-03T01:18:57.600Z,1.98
2022-12-03T01:24:24.225Z,2.28
2022-12-03T01:26:52.713Z,4.25
2022-12-03T01:29:23.919Z,5.18
2022-12-03T01:32:10.556Z,3.75
2022-12-03T01:34:51.743Z,4.18
2022-12-03T01:37:29.474Z,2.65
2022-12-03T01:40:00.618Z,3.63
2022-12-03T01:42:34.931Z,2.78
2022-12-03T01:45:10.407Z,2.25
2022-12-03T01:51:35.157Z,2.70
2022-12-03T01:54:17.443Z,4.38
2022-12-03T01:57:30.915Z,2.70
2022-12-03T02:00:28.131Z,3.67
2022-12-03T02:03:57.007Z,2.20
2022-12-03T02:09:27.462Z,5.22
2022-12-03T02:18:25.538Z,2.88
2022-12-03T13:59:40.350Z,7.93
2022-12-03T14:02:13.614Z,4.30
2022-12-03T14:04:42.553Z,4.53
2022-12-03T14:07:10.755Z,4.80
2022-12-03T14:09:42.074Z,4.10
2022-12-03T14:13:13.171Z,6.45
2022-12-03T14:15:31.999Z,4.68
2022-12-03T14:18:00.347Z,5.55
2022-12-03T14:20:28.623Z,3.83
2022-12-03T14:22:59.497Z,4.28
2022-12-03T14:25:30.991Z,3.95
2022-12-03T14:27:59.488Z,5.13
2022-12-03T14:30:28.113Z,5.10
2022-12-03T14:32:56.510Z,5.10
2022-12-03T14:35:29.028Z,4.60
2022-12-03T14:38:09.848Z,6.18
2022-12-03T14:40:41.240Z,6.37
2022-12-03T14:43:11.553Z,3.97
2022-12-03T14:45:43.029Z,4.63
2022-12-03T14:50:42.530Z,3.88
2022-12-03T14:53:12.435Z,4.88
2022-12-03T14:55:41.074Z,6.00
2022-12-03T14:58:09.473Z,7.65
2022-12-03T15:00:37.820Z,3.90
2022-12-03T15:03:06.688Z,4.35
2022-12-03T15:05:35.106Z,5.60
2022-12-03T15:08:03.644Z,4.30
2022-12-03T15:10:32.047Z,4.72
2022-12-03T15:13:00.394Z,5.13
2022-12-03T15:15:28.799Z,4.63
2022-12-03T15:17:57.101Z,4.88
2022-12-03T15:20:25.442Z,4.38
2022-12-03T15:22:56.575Z,4.20
2022-12-03T15:25:27.606Z,5.35
2022-12-03T15:27:56.147Z,4.97
2022-12-03T15:30:24.596Z,4.72
2022-12-03T15:32:53.025Z,6.32
2022-12-03T15:35:21.320Z,7.00
2022-12-03T15:37:49.938Z,5.13
2022-12-03T15:40:18.292Z,5.57
2022-12-03T15:42:46.570Z,6.32
2022-12-03T15:45:17.346Z,6.88
2022-12-03T15:47:48.754Z,5.87
2022-12-03T15:50:17.365Z,6.38
2022-12-03T15:52:46.644Z,5.83
2022-12-03T15:55:40.302Z,7.78
2022-12-03T15:58:08.775Z,6.05
2022-12-03T16:00:40.494Z,5.75
2022-12-03T16:13:41.848Z,6.50
2022-12-03T16:25:44.453Z,6.32
2022-12-03T16:29:09.021Z,6.72
2022-12-03T16:31:40.071Z,7.57
2022-12-03T16:34:08.614Z,7.22
2022-12-03T16:36:46.776Z,7.00
2022-12-03T16:43:39.703Z,8.63
2022-12-03T16:46:47.051Z,7.93
2022-12-03T16:53:33.894Z,7.18
2022-12-03T17:10:45.398Z,7.47
2022-12-03T17:13:09.713Z,9.15
2022-12-03T17:16:14.164Z,10.30
2022-12-03T17:19:05.563Z,14.35
2022-12-03T17:22:08.980Z,16.60
2022-12-03T17:24:47.579Z,15.10
2022-12-03T17:37:33.815Z,12.45
2022-12-03T17:58:08.109Z,10.57
2022-12-03T18:08:12.472Z,11.10
2022-12-03T18:11:28.892Z,10.20
2022-12-03T18:18:04.242Z,9.95
2022-12-03T18:20:35.348Z,10.10
2022-12-03T18:23:13.369Z,10.32
2022-12-03T18:29:13.102Z,14.65
2022-12-03T19:13:12.485Z,26.30
2022-12-03T19:16:13.887Z,27.20
2022-12-03T19:22:09.749Z,27.90
2022-12-03T19:24:53.330Z,28.02
2022-12-03T19:27:21.976Z,26.83
2022-12-03T19:47:45.351Z,27.88
2022-12-03T19:50:36.406Z,28.73
2022-12-03T19:53:13.027Z,30.60
2022-12-03T19:59:34.696Z,32.70
2022-12-03T20:05:36.589Z,31.77
2022-12-03T20:08:38.047Z,31.27
2022-12-03T20:15:04.794Z,30.25
2022-12-03T20:17:39.375Z,31.55
2022-12-03T20:20:33.845Z,30.98
2022-12-03T20:26:03.541Z,31.75
2022-12-03T20:28:34.983Z,33.65
2022-12-03T20:31:39.625Z,33.22
2022-12-03T20:34:36.637Z,32.55
2022-12-03T20:37:04.878Z,32.78
2022-12-03T20:39:36.272Z,30.58
2022-12-03T20:42:04.542Z,31.25
2022-12-03T20:44:35.589Z,28.90
2022-12-03T20:47:07.456Z,29.17
2022-12-03T20:49:36.332Z,26.05
2022-12-03T20:52:04.914Z,31.35
2022-12-03T20:58:44.654Z,22.40
2022-12-03T20:59:05.297Z,25.33
2022-12-03T21:08:47.349Z,18.25
2022-12-03T21:12:05.889Z,19.52
2022-12-03T21:15:05.272Z,18.30
2022-12-03T21:18:35.832Z,18.33
2022-12-03T21:21:08.352Z,18.63
2022-12-03T21:23:40.388Z,16.58
2022-12-03T21:49:50.143Z,16.05
2022-12-03T21:52:34.339Z,16.13
2022-12-03T21:55:02.709Z,16.38
2022-12-03T21:57:36.196Z,16.52
2022-12-03T22:00:08.524Z,14.10
2022-12-03T22:02:40.981Z,16.92
2022-12-03T22:05:10.903Z,16.55
2022-12-03T22:08:00.741Z,15.68
2022-12-03T22:18:11.243Z,16.30
2022-12-03T22:24:04.480Z,10.60
2022-12-03T22:35:33.597Z,15.52
2022-12-03T22:38:17.932Z,17.33
2022-12-03T22:47:06.918Z,13.80
2022-12-03T22:50:04.333Z,12.68
2022-12-03T22:56:09.495Z,15.60
2022-12-03T22:58:41.472Z,13.85
2022-12-03T23:01:10.052Z,15.25
2022-12-03T23:04:02.123Z,14.00
2022-12-03T23:06:37.015Z,13.88
2022-12-03T23:24:02.550Z,12.40
2022-12-03T23:29:39.850Z,11.25
2022-12-03T23:32:08.060Z,11.20
2022-12-03T23:35:02.107Z,12.48
2022-12-03T23:37:33.194Z,12.55
2022-12-03T23:40:04.494Z,12.25
2022-12-03T23:42:32.724Z,9.80
2022-12-03T23:45:04.608Z,10.80
2022-12-03T23:47:32.802Z,11.63
2022-12-03T23:50:05.426Z,11.13
2022-12-03T23:55:18.662Z,12.57
2022-12-03T23:58:32.720Z,13.85
